DABC

Mohamed Boudiaf International Airport

Constantine, Algeria
METAR DABC 190830Z 04002KT CAVOK 19/16 Q1021
Observed Flight Rules
Sep-19 @ 08:30 UTC (34 minutes ago) Visual Flight Rules
Wind Visibility Clouds
40° at 2 knots 10,000+ meters
  • Clear skies
Temperatures Readings
Current 19°C / 66°F
Dewpoint 16°C / 61°F
Humidity 83%
Altimeter 30.15" Hg
Pressure 1021 hPa
Elevation 694
METAR DABC 190830Z 04002KT CAVOK 19/16 Q1021
Observed Flight Rules
Sep-19 @ 08:30 UTC
(34 minutes ago)
VFR
Wind Visibility
40° at 2 knots 10,000+ meters
Clouds
  • Clear skies
Temperature Dewpoint
19°C / 66°F 16°C / 61°F
Humidity Altimeter Pressure
83% 30.15" Hg 1021 hPa